Greater Peoria Regional Airport Peoria US
ICAO: KPIA
IATA: PIA
Category: Large
Scheduled Services: Yes

Elevation: 660 ft
TransAlt. 18000 ft.

Airport Communications:
PEORIA APP/DEP:124.675
ASOS:126.1
ATIS:126.1
GND:121.85
ARNG OPS:32.3
ANG OPS:141.55
KANKAKEE RDO:122.35
PEORIA TWR:119.1
UNICOM:122.95

KPIA Zoom In..

Runways:

(A) RW 04 length 8004 ft width 150 ft
ILS 110.55 / hdg 38

(B) RW 13 length 10104 ft width 150 ft
ILS 109.90 / hdg 126

(C) RW 22 length 8004 ft width 150 ft
---- / hdg 218

(D) RW 31 length 10104 ft width 150 ft
ILS 109.90 / hdg 306

Location; KPIA
Day. 22 / Time. 03.54 Zulu
* Altimeter: 29.79
* Temperature: 11° c. 51.8°f.
* Wind from: 160° Speed 09 kn with Gusts up to 19 kn.
Dewpoint: 11° c.
Visibility: 1/4 Statute Miles.
Conditions: Fog.

KPIA 220354Z 16009G19KT 1/4SM R04/3500V4000FT FG VV002 11/11 A2979 RMK AO2 SLP090 T01060106 $


Wind From 160°
Speed 09 kn.

jpsM music video
CHECK IT OUT

jpsM - It Moves..

 
jpsmedia.com for Web Design  worldairports.se 2018   terms of use